Time;durP1;ratioP1;P1;durP2;ratioP2;P2;SDS_P1;SDS_P2;PMS_P1;PMS_P2;Temp;Humidity;BMP_temperature;BMP_pressure;BME280_temperature;BME280_humidity;BME280_pressure;Samples;Min_cycle;Max_cycle;Signal;HPM_P1;HPM_P2
2021/06/29 04:00:18;;;;;;;11.33;10.43;;;18.70;99.90;;;;;;5988077;23;20383;-66
2021/06/29 04:02:44;;;;;;;13.63;11.13;;;18.60;99.90;;;;;;4977262;28;20462;-67
2021/06/29 04:05:16;;;;;;;10.83;10.03;;;18.50;99.90;;;;;;4975019;28;20459;-67
2021/06/29 04:07:43;;;;;;;11.57;10.67;;;18.50;99.90;;;;;;4974784;28;20490;-67
2021/06/29 04:10:10;;;;;;;11.97;10.97;;;18.40;99.90;;;;;;4975007;28;20459;-66
2021/06/29 04:12:37;;;;;;;12.17;11.27;;;18.30;99.90;;;;;;4974538;28;20481;-67
2021/06/29 04:15:05;;;;;;;11.53;10.57;;;18.20;99.90;;;;;;4974810;28;20454;-67
2021/06/29 04:17:33;;;;;;;12.93;11.93;;;18.20;99.90;;;;;;4975035;28;20549;-67
2021/06/29 04:20:00;;;;;;;11.80;10.67;;;18.10;99.90;;;;;;4974945;28;20513;-67
2021/06/29 04:22:26;;;;;;;11.50;10.43;;;18.10;99.90;;;;;;4974927;28;20478;-68
2021/06/29 04:24:53;;;;;;;11.53;10.43;;;18.10;99.90;;;;;;4974646;28;20945;-68
2021/06/29 04:27:22;;;;;;;11.73;10.50;;;18.00;99.90;;;;;;4974653;28;20957;-67
2021/06/29 04:29:49;;;;;;;11.33;10.53;;;18.00;99.90;;;;;;4974833;28;20565;-67
2021/06/29 04:32:16;;;;;;;11.73;10.73;;;18.10;99.90;;;;;;4974684;28;20981;-67
2021/06/29 04:34:44;;;;;;;10.67;9.97;;;18.20;99.90;;;;;;4975385;28;20466;-67
2021/06/29 04:37:11;;;;;;;10.17;9.30;;;18.30;99.90;;;;;;4974665;28;20454;-67
2021/06/29 04:39:38;;;;;;;11.20;10.00;;;18.30;99.90;;;;;;4974911;28;20821;-67
2021/06/29 04:42:05;;;;;;;10.63;9.80;;;18.40;99.90;;;;;;4974849;28;20490;-67
2021/06/29 04:44:35;;;;;;;10.93;10.13;;;18.30;99.90;;;;;;4975058;28;20462;-63
2021/06/29 04:47:02;;;;;;;11.10;10.20;;;18.20;99.90;;;;;;4975855;28;20533;-64
2021/06/29 04:49:29;;;;;;;10.40;9.70;;;18.30;99.90;;;;;;4974748;28;20485;-65
2021/06/29 04:51:57;;;;;;;10.40;9.70;;;18.30;99.90;;;;;;4974637;28;20478;-64
2021/06/29 04:54:24;;;;;;;9.40;8.50;;;18.30;99.90;;;;;;4974477;28;20456;-64
2021/06/29 04:56:50;;;;;;;9.23;8.20;;;18.40;99.90;;;;;;4974624;28;20469;-64
2021/06/29 04:59:17;;;;;;;8.47;7.87;;;18.50;99.90;;;;;;4974601;28;20451;-64
2021/06/29 05:01:44;;;;;;;9.00;8.20;;;18.50;99.90;;;;;;4973988;28;20490;-64
2021/06/29 05:04:10;;;;;;;9.23;8.50;;;18.60;99.90;;;;;;4974546;28;20795;-64
2021/06/29 05:06:37;;;;;;;8.90;8.20;;;18.60;99.90;;;;;;4974763;28;20463;-64
2021/06/29 05:09:05;;;;;;;8.90;8.20;;;18.70;99.90;;;;;;4974164;28;21008;-64
2021/06/29 05:11:32;;;;;;;8.70;8.20;;;18.70;99.90;;;;;;4974178;28;20985;-64
2021/06/29 05:13:59;;;;;;;7.90;7.40;;;18.70;99.90;;;;;;4974564;28;20462;-64
2021/06/29 05:16:26;;;;;;;10.27;9.27;;;18.60;99.90;;;;;;4974572;28;20513;-64
2021/06/29 05:18:52;;;;;;;9.07;8.37;;;18.70;99.90;;;;;;4974491;28;20856;-64
2021/06/29 05:21:19;;;;;;;9.67;8.70;;;18.80;99.90;;;;;;4974358;28;20483;-64
2021/06/29 05:23:46;;;;;;;10.33;9.27;;;18.80;99.90;;;;;;4974271;28;20459;-64
2021/06/29 05:26:14;;;;;;;9.50;8.90;;;18.90;99.90;;;;;;4976692;28;20465;-64
2021/06/29 05:28:41;;;;;;;9.70;9.03;;;19.00;99.90;;;;;;4978339;28;20485;-64
2021/06/29 05:31:08;;;;;;;8.90;8.23;;;18.90;99.90;;;;;;4977712;28;21008;-64
2021/06/29 05:33:35;;;;;;;9.90;8.90;;;18.80;99.90;;;;;;4977908;28;20439;-64
2021/06/29 05:36:01;;;;;;;10.17;9.27;;;18.90;99.90;;;;;;4977745;28;20463;-62
2021/06/29 05:38:28;;;;;;;9.97;9.07;;;19.00;99.90;;;;;;4984699;28;20450;-63
2021/06/29 05:40:55;;;;;;;13.17;12.20;;;19.00;99.90;;;;;;4986105;28;20485;-64
2021/06/29 05:43:23;;;;;;;9.40;8.60;;;19.10;99.90;;;;;;4985641;28;20455;-64
2021/06/29 05:45:49;;;;;;;6.40;5.93;;;19.20;99.90;;;;;;4983349;28;20454;-66
2021/06/29 05:48:18;;;;;;;7.53;7.03;;;19.30;99.90;;;;;;4977646;28;20462;-66
2021/06/29 05:50:45;;;;;;;7.70;7.10;;;19.40;99.90;;;;;;4977506;28;20528;-65
2021/06/29 05:53:12;;;;;;;9.53;8.80;;;19.40;99.90;;;;;;4977689;28;20455;-65
2021/06/29 05:55:39;;;;;;;7.23;6.80;;;19.40;99.90;;;;;;4977455;28;20458;-67
2021/06/29 05:58:05;;;;;;;6.60;6.20;;;19.40;99.90;;;;;;4977565;28;20484;-64
2021/06/29 06:00:33;;;;;;;7.43;6.93;;;19.40;99.90;;;;;;4977272;28;20478;-66
2021/06/29 06:03:00;;;;;;;7.30;6.77;;;19.40;99.90;;;;;;4977967;28;20451;-66
2021/06/29 06:05:27;;;;;;;7.67;7.10;;;19.50;99.90;;;;;;4977346;28;20451;-65
2021/06/29 06:07:55;;;;;;;6.97;6.47;;;19.50;99.90;;;;;;4977390;28;21008;-64
2021/06/29 06:10:21;;;;;;;8.23;7.63;;;19.60;99.90;;;;;;4976978;28;21024;-65
2021/06/29 06:12:48;;;;;;;8.03;7.40;;;19.60;99.90;;;;;;4977484;28;20800;-64
2021/06/29 06:15:15;;;;;;;8.07;7.47;;;19.60;99.90;;;;;;4977319;28;20458;-65
2021/06/29 06:17:43;;;;;;;8.23;7.73;;;19.70;99.90;;;;;;4977179;28;20462;-64
2021/06/29 06:20:11;;;;;;;7.80;7.20;;;19.70;99.90;;;;;;4977237;28;20816;-65
2021/06/29 06:22:38;;;;;;;8.90;7.43;;;19.80;99.90;;;;;;4978610;28;20509;-65
2021/06/29 06:25:06;;;;;;;6.00;5.60;;;19.90;99.90;;;;;;4978979;28;20486;-64
2021/06/29 06:27:33;;;;;;;6.63;6.13;;;20.00;99.90;;;;;;4977198;28;20455;-64
2021/06/29 06:30:00;;;;;;;7.27;6.50;;;20.10;99.90;;;;;;4976634;28;20486;-64
2021/06/29 06:32:26;;;;;;;7.57;6.20;;;20.10;99.90;;;;;;4976924;28;20540;-65
2021/06/29 06:34:54;;;;;;;6.27;5.87;;;20.30;99.90;;;;;;4976824;28;20459;-65
2021/06/29 06:37:21;;;;;;;6.47;6.07;;;20.50;99.90;;;;;;4976397;28;20808;-65
2021/06/29 06:39:48;;;;;;;7.30;6.70;;;20.60;99.90;;;;;;4976731;28;20508;-64
2021/06/29 06:42:15;;;;;;;6.90;6.40;;;20.70;99.90;;;;;;4976128;28;20485;-65
2021/06/29 06:44:42;;;;;;;5.70;5.20;;;20.80;99.90;;;;;;4976380;28;20950;-67
2021/06/29 06:47:09;;;;;;;5.67;4.97;;;21.10;99.90;;;;;;4976612;28;20458;-68
2021/06/29 06:49:36;;;;;;;5.40;5.00;;;21.30;99.90;;;;;;4976182;28;20470;-67
2021/06/29 06:52:04;;;;;;;6.10;5.50;;;21.60;99.90;;;;;;4977491;28;20478;-67
2021/06/29 06:54:31;;;;;;;6.77;6.27;;;21.80;99.90;;;;;;4976166;28;20453;-67
2021/06/29 06:56:58;;;;;;;5.73;5.23;;;21.80;99.90;;;;;;4976340;28;20462;-67
2021/06/29 06:59:24;;;;;;;6.00;5.60;;;21.90;99.90;;;;;;4977126;28;20455;-67
2021/06/29 07:01:51;;;;;;;5.67;5.33;;;22.20;99.90;;;;;;4976959;28;20494;-68
2021/06/29 07:04:19;;;;;;;4.80;4.50;;;22.60;99.90;;;;;;4976379;28;20545;-68
2021/06/29 07:06:46;;;;;;;4.50;4.20;;;23.10;99.90;;;;;;4976156;28;20516;-68
2021/06/29 07:09:15;;;;;;;4.13;3.83;;;23.80;99.90;;;;;;4975872;28;20486;-68
2021/06/29 07:11:42;;;;;;;3.80;3.53;;;24.30;99.90;;;;;;4975860;28;21001;-68
2021/06/29 07:14:09;;;;;;;4.67;4.07;;;25.10;99.90;;;;;;4976457;28;20482;-68
2021/06/29 07:16:35;;;;;;;4.53;4.27;;;25.70;99.90;;;;;;4976254;28;20458;-68
2021/06/29 07:19:02;;;;;;;4.97;4.50;;;25.80;99.90;;;;;;4976021;28;20968;-68
2021/06/29 07:21:29;;;;;;;5.77;4.40;;;26.60;99.90;;;;;;4975823;28;20485;-68
2021/06/29 07:23:56;;;;;;;5.73;5.10;;;27.10;99.90;;;;;;4975570;28;20960;-68
2021/06/29 07:26:24;;;;;;;4.40;4.10;;;27.50;99.90;;;;;;4976166;28;20442;-68
2021/06/29 07:28:51;;;;;;;7.50;4.90;;;27.80;99.90;;;;;;4975782;28;20442;-68
2021/06/29 07:31:18;;;;;;;4.87;3.63;;;28.30;99.90;;;;;;4975722;28;20475;-68
2021/06/29 07:33:45;;;;;;;2.90;2.70;;;28.50;99.90;;;;;;4975807;28;20508;-68
2021/06/29 07:36:13;;;;;;;4.37;3.00;;;28.90;99.90;;;;;;4975720;28;20465;-68
2021/06/29 07:38:39;;;;;;;2.73;2.53;;;29.30;99.90;;;;;;4975610;28;20461;-66
2021/06/29 07:41:06;;;;;;;2.90;2.70;;;29.30;99.90;;;;;;4975240;28;21024;-68
2021/06/29 07:43:34;;;;;;;2.70;2.50;;;29.50;99.90;;;;;;4975569;28;20465;-67
2021/06/29 07:46:01;;;;;;;4.80;2.43;;;29.80;99.90;;;;;;4975667;28;20451;-67
2021/06/29 07:48:28;;;;;;;2.90;2.80;;;30.00;99.90;;;;;;4975062;28;20482;-67
2021/06/29 07:50:55;;;;;;;2.30;2.20;;;29.90;99.90;;;;;;4975975;28;20489;-68
2021/06/29 07:53:22;;;;;;;5.40;2.77;;;29.80;99.90;;;;;;4975420;28;20507;-66
2021/06/29 07:55:50;;;;;;;3.20;2.90;;;29.40;99.90;;;;;;4975388;28;20451;-66
2021/06/29 07:58:17;;;;;;;2.83;2.73;;;29.00;99.90;;;;;;4975110;28;20934;-67
2021/06/29 08:00:46;;;;;;;5.10;3.13;;;29.20;99.90;;;;;;4975245;28;20484;-67
2021/06/29 08:03:12;;;;;;;2.47;2.27;;;29.60;99.90;;;;;;4975343;28;20439;-67
2021/06/29 08:05:39;;;;;;;2.80;2.70;;;29.70;99.90;;;;;;4975594;28;20462;-67
2021/06/29 08:08:07;;;;;;;2.77;2.57;;;29.70;99.90;;;;;;4975326;28;20826;-66
2021/06/29 08:10:35;;;;;;;2.43;2.33;;;30.10;99.90;;;;;;4975546;28;20486;-66
2021/06/29 08:13:02;;;;;;;3.03;2.30;;;30.40;99.90;;;;;;4975300;28;20466;-67
2021/06/29 08:15:29;;;;;;;3.20;2.93;;;30.30;99.90;;;;;;4975459;28;20458;-67
2021/06/29 08:17:57;;;;;;;2.90;2.70;;;29.80;99.90;;;;;;4975240;28;20458;-68
2021/06/29 08:20:25;;;;;;;2.60;2.50;;;29.40;99.90;;;;;;4975320;28;20451;-68
2021/06/29 08:22:55;;;;;;;2.80;2.57;;;29.60;99.90;;;;;;4975561;28;20458;-68
2021/06/29 08:25:23;;;;;;;2.60;2.50;;;29.60;99.90;;;;;;4975186;28;20443;-67
2021/06/29 08:27:50;;;;;;;2.37;2.27;;;29.80;99.90;;;;;;4975425;28;20508;-68
2021/06/29 08:30:19;;;;;;;3.20;2.37;;;30.00;99.90;;;;;;4975710;28;20485;-67
2021/06/29 08:32:46;;;;;;;2.83;2.50;;;29.60;99.90;;;;;;4975705;28;20455;-68
2021/06/29 08:35:14;;;;;;;2.40;2.20;;;29.70;99.90;;;;;;4975009;28;20972;-68
2021/06/29 08:37:43;;;;;;;2.40;2.30;;;30.00;99.90;;;;;;4975080;28;20455;-67
2021/06/29 08:40:12;;;;;;;2.40;2.00;;;30.40;99.90;;;;;;4975922;28;20469;-67
2021/06/29 08:42:39;;;;;;;3.57;2.20;;;29.70;99.90;;;;;;4974759;28;20470;-66
2021/06/29 08:45:08;;;;;;;2.93;1.90;;;29.70;99.90;;;;;;4975089;28;20459;-66
2021/06/29 08:47:35;;;;;;;1.90;1.80;;;29.60;99.90;;;;;;4975449;28;20462;-66
2021/06/29 08:50:03;;;;;;;2.00;1.90;;;29.70;99.90;;;;;;4974651;28;20479;-67
2021/06/29 08:52:31;;;;;;;1.93;1.70;;;30.10;99.90;;;;;;4974531;28;20845;-68
2021/06/29 08:54:58;;;;;;;2.40;1.80;;;31.00;99.90;;;;;;4975258;28;20461;-67
2021/06/29 08:57:25;;;;;;;1.90;1.77;;;30.60;98.50;;;;;;4975043;28;20454;-67
2021/06/29 08:59:52;;;;;;;1.73;1.73;;;30.50;99.40;;;;;;4974906;28;20446;-66
2021/06/29 09:02:19;;;;;;;1.80;1.63;;;30.00;99.70;;;;;;4978254;28;20486;-68
2021/06/29 09:04:47;;;;;;;4.00;1.77;;;29.90;99.40;;;;;;4978945;28;20484;-65
2021/06/29 09:07:19;;;;;;;1.43;1.43;;;29.80;99.50;;;;;;4978572;28;20557;-66
2021/06/29 09:09:53;;;;;;;1.90;1.80;;;29.10;99.20;;;;;;4980367;28;20478;-67
2021/06/29 09:12:43;;;;;;;2.57;1.90;;;28.50;98.60;;;;;;4982394;28;20552;-67
2021/06/29 09:15:35;;;;;;;1.87;1.77;;;28.20;99.90;;;;;;4982886;28;20443;-66
2021/06/29 09:18:18;;;;;;;1.53;1.43;;;28.50;99.60;;;;;;4979171;28;20446;-68
2021/06/29 09:20:48;;;;;;;2.20;1.70;;;29.80;99.10;;;;;;4978960;28;20804;-68
2021/06/29 09:23:17;;;;;;;1.83;1.73;;;31.10;96.30;;;;;;4979181;28;20447;-68
2021/06/29 09:25:48;;;;;;;1.20;1.20;;;32.30;94.00;;;;;;4978318;28;20818;-67
2021/06/29 09:28:18;;;;;;;1.30;1.30;;;32.80;91.90;;;;;;4978527;28;20910;-67
2021/06/29 09:30:47;;;;;;;1.40;1.40;;;33.30;84.10;;;;;;4978105;28;20830;-67
2021/06/29 09:33:16;;;;;;;1.50;1.40;;;33.80;83.10;;;;;;4978366;28;20458;-67
2021/06/29 09:35:46;;;;;;;1.47;1.37;;;33.80;89.40;;;;;;4978256;28;20462;-67
2021/06/29 09:38:19;;;;;;;1.40;1.40;;;33.60;84.20;;;;;;4978310;28;21001;-67
2021/06/29 09:40:53;;;;;;;3.13;1.47;;;32.60;82.50;;;;;;4977933;28;20510;-66
2021/06/29 09:43:20;;;;;;;2.40;1.63;;;32.30;86.60;;;;;;4977962;28;20443;-67
2021/06/29 09:45:48;;;;;;;3.77;1.70;;;32.50;88.70;;;;;;4977739;28;20458;-66
2021/06/29 09:48:17;;;;;;;1.73;1.63;;;32.40;85.30;;;;;;4978028;28;20460;-67
2021/06/29 09:50:48;;;;;;;1.60;1.50;;;33.10;88.80;;;;;;4977720;28;20537;-66
2021/06/29 09:53:17;;;;;;;1.40;1.30;;;31.90;86.30;;;;;;4978520;28;20743;-66
2021/06/29 09:55:47;;;;;;;2.57;1.60;;;31.90;88.90;;;;;;4978148;28;20968;-67
2021/06/29 09:58:16;;;;;;;2.13;1.50;;;32.30;89.60;;;;;;4979136;28;20447;-67
2021/06/29 10:00:45;;;;;;;1.67;1.67;;;32.90;80.90;;;;;;4979064;28;20482;-67
2021/06/29 10:03:21;;;;;;;1.50;1.50;;;33.00;80.60;;;;;;4988539;28;20457;-67
2021/06/29 10:05:48;;;;;;;1.73;1.50;;;32.90;82.30;;;;;;4977227;28;20797;-67
2021/06/29 10:08:24;;;;;;;1.53;1.47;;;33.30;82.80;;;;;;4977382;28;20493;-66
2021/06/29 10:11:04;;;;;;;1.77;1.77;;;32.70;77.90;;;;;;4978538;28;20478;-66
2021/06/29 10:13:34;;;;;;;3.20;2.10;;;32.80;79.00;;;;;;4977533;28;20446;-69
2021/06/29 10:16:02;;;;;;;1.93;1.83;;;33.00;79.10;;;;;;4978067;28;20497;-67
2021/06/29 10:18:31;;;;;;;1.95;1.48;;;33.20;88.20;;;;;;4976945;28;20455;-68
2021/06/29 10:21:00;;;;;;;2.40;2.30;;;33.60;87.00;;;;;;4977911;28;20216;-68
2021/06/29 10:23:27;;;;;;;1.97;1.87;;;33.80;81.00;;;;;;4977497;28;20454;-66
2021/06/29 10:25:56;;;;;;;1.80;1.80;;;34.00;78.40;;;;;;4977346;28;20458;-68
2021/06/29 10:28:23;;;;;;;1.57;1.47;;;34.60;74.50;;;;;;4977239;28;20937;-69
2021/06/29 10:30:50;;;;;;;1.70;1.60;;;34.60;73.10;;;;;;4977098;28;20485;-67
2021/06/29 10:33:18;;;;;;;1.60;1.60;;;34.00;77.30;;;;;;4977472;28;20458;-66
2021/06/29 10:35:45;;;;;;;2.33;2.17;;;33.90;76.50;;;;;;4977273;28;20454;-67
2021/06/29 10:38:12;;;;;;;2.13;2.03;;;33.40;78.30;;;;;;4977418;28;20481;-67
2021/06/29 10:40:39;;;;;;;1.80;1.70;;;32.50;78.70;;;;;;4976965;28;20474;-67
2021/06/29 10:43:07;;;;;;;1.90;1.80;;;31.70;84.30;;;;;;4977044;28;20459;-67
2021/06/29 10:45:36;;;;;;;2.10;2.00;;;31.20;85.30;;;;;;4977248;28;20565;-67
2021/06/29 10:48:23;;;;;;;2.00;1.80;;;31.30;84.50;;;;;;4977191;28;20462;-67
2021/06/29 10:50:51;;;;;;;2.23;2.07;;;31.70;85.80;;;;;;4976993;28;20487;-66
2021/06/29 10:53:39;;;;;;;2.60;1.80;;;31.40;85.10;;;;;;4977087;28;20456;-66
2021/06/29 10:56:08;;;;;;;2.50;1.70;;;31.90;87.00;;;;;;4976935;28;20443;-67
2021/06/29 10:58:39;;;;;;;2.47;2.37;;;32.60;81.20;;;;;;4977053;28;20458;-67
2021/06/29 11:01:26;;;;;;;3.27;2.67;;;32.30;79.40;;;;;;4976689;28;20478;-65
2021/06/29 11:03:55;;;;;;;2.43;2.13;;;31.50;87.60;;;;;;4977079;28;20458;-65
2021/06/29 11:06:43;;;;;;;2.37;2.17;;;31.70;87.40;;;;;;4976973;28;20454;-65
2021/06/29 11:09:12;;;;;;;1.97;1.87;;;32.00;83.60;;;;;;4976740;28;20470;-65
2021/06/29 11:11:39;;;;;;;3.13;2.60;;;31.90;85.40;;;;;;4976471;28;20493;-64
2021/06/29 11:14:29;;;;;;;2.27;2.17;;;31.40;89.30;;;;;;4976517;28;20454;-64
2021/06/29 11:16:58;;;;;;;2.20;2.00;;;31.80;86.60;;;;;;4976846;28;20462;-64
2021/06/29 11:20:12;;;;;;;2.10;1.97;;;32.00;84.90;;;;;;4976594;28;20522;-64
2021/06/29 11:22:51;;;;;;;2.13;1.63;;;32.40;87.70;;;;;;4941377;28;20443;-65
2021/06/29 11:25:35;;;;;;;2.20;2.10;;;32.80;81.80;;;;;;4976354;28;20461;-64
2021/06/29 11:28:06;;;;;;;2.43;2.33;;;32.40;80.10;;;;;;4976289;28;20443;-64
2021/06/29 11:31:23;;;;;;;2.20;2.10;;;31.50;81.50;;;;;;4976399;28;20496;-64
2021/06/29 11:33:56;;;;;;;1.90;1.90;;;30.70;79.60;;;;;;4921264;29;20933;-65
2021/06/29 11:36:43;;;;;;;2.83;2.07;;;30.00;86.60;;;;;;4975885;28;20451;-63
2021/06/29 11:39:35;;;;;;;3.13;2.53;;;29.50;84.30;;;;;;4976467;28;20445;-64
2021/06/29 11:42:12;;;;;;;3.43;2.20;;;29.50;87.90;;;;;;4976245;28;20467;-65
2021/06/29 11:44:42;;;;;;;2.00;1.90;;;29.30;85.90;;;;;;4976260;28;20796;-65
2021/06/29 11:47:13;;;;;;;2.10;2.00;;;29.30;87.30;;;;;;4975702;28;20970;-65
2021/06/29 11:49:44;;;;;;;1.87;1.80;;;29.40;87.00;;;;;;4976267;28;20443;-64
2021/06/29 11:52:21;;;;;;;2.20;1.70;;;29.60;91.00;;;;;;4976418;28;20483;-64
2021/06/29 11:54:52;;;;;;;2.30;2.10;;;29.70;89.00;;;;;;4975710;28;20537;-65
2021/06/29 11:57:21;;;;;;;2.50;2.30;;;29.30;90.50;;;;;;4975617;28;20438;-65
2021/06/29 11:59:51;;;;;;;2.33;2.23;;;29.60;91.60;;;;;;4975725;28;20455;-63
2021/06/29 12:02:21;;;;;;;2.00;1.90;;;29.30;92.20;;;;;;4975283;28;20478;-64
2021/06/29 12:05:00;;;;;;;2.23;2.13;;;29.00;91.80;;;;;;4975786;28;20513;-63
2021/06/29 12:07:35;;;;;;;2.53;2.33;;;29.30;94.90;;;;;;4976020;28;20451;-63
2021/06/29 12:10:06;;;;;;;2.07;1.83;;;29.50;94.80;;;;;;4975906;28;20442;-63
2021/06/29 12:12:33;;;;;;;1.90;1.80;;;29.40;94.30;;;;;;4975759;28;20486;-64
2021/06/29 12:15:03;;;;;;;2.10;2.07;;;29.30;92.20;;;;;;4976041;28;20488;-65
2021/06/29 12:17:31;;;;;;;4.50;2.33;;;29.30;92.00;;;;;;4976133;28;20513;-65
2021/06/29 12:19:59;;;;;;;2.17;2.03;;;29.10;92.30;;;;;;4975641;28;20493;-65
2021/06/29 12:22:32;;;;;;;1.90;1.80;;;28.60;94.10;;;;;;4975601;28;20474;-65
2021/06/29 12:24:59;;;;;;;2.03;1.93;;;28.90;93.90;;;;;;4975495;28;20527;-65
2021/06/29 12:27:26;;;;;;;2.50;2.37;;;29.10;93.00;;;;;;4975330;28;20470;-65
2021/06/29 12:29:53;;;;;;;3.53;2.00;;;29.10;92.70;;;;;;4975459;28;20529;-65
2021/06/29 12:32:23;;;;;;;2.20;2.00;;;28.90;93.10;;;;;;4975086;28;20466;-65
2021/06/29 12:34:52;;;;;;;2.87;2.00;;;28.60;92.80;;;;;;4977455;28;20486;-65
2021/06/29 12:37:19;;;;;;;5.63;1.83;;;28.50;95.20;;;;;;4979175;28;20454;-65
2021/06/29 12:39:46;;;;;;;2.00;1.87;;;28.70;93.50;;;;;;4979557;28;20841;-65
2021/06/29 12:42:15;;;;;;;2.40;2.20;;;28.60;93.10;;;;;;4979240;28;20510;-64
2021/06/29 12:44:42;;;;;;;1.90;1.80;;;28.40;93.70;;;;;;4979295;28;20509;-64
2021/06/29 12:47:13;;;;;;;2.80;1.90;;;28.40;94.10;;;;;;4979186;28;20454;-65
2021/06/29 12:49:41;;;;;;;2.30;2.20;;;28.10;93.70;;;;;;4979053;28;20446;-64
2021/06/29 12:52:11;;;;;;;2.40;2.10;;;28.10;94.80;;;;;;4979198;28;20569;-65
2021/06/29 12:54:39;;;;;;;2.20;2.00;;;28.10;94.80;;;;;;4979252;28;20478;-65
2021/06/29 12:57:07;;;;;;;2.30;2.10;;;27.70;96.10;;;;;;4979119;28;20517;-67
2021/06/29 12:59:36;;;;;;;2.20;2.10;;;27.30;94.30;;;;;;4979193;28;20458;-65
2021/06/29 13:02:05;;;;;;;2.67;2.40;;;27.30;95.20;;;;;;4978736;28;20882;-65
2021/06/29 13:04:35;;;;;;;5.00;2.50;;;27.10;95.30;;;;;;4980517;28;20461;-65
2021/06/29 13:07:04;;;;;;;2.03;1.93;;;26.90;96.80;;;;;;4985660;28;20557;-65
2021/06/29 13:09:37;;;;;;;5.50;1.30;;;26.70;98.60;;;;;;4978460;28;20807;-67
2021/06/29 13:12:07;;;;;;;9.83;1.00;;;25.70;93.30;;;;;;4978384;28;20570;-66
2021/06/29 13:14:35;;;;;;;4.67;1.50;;;24.00;93.70;;;;;;4978196;28;20969;-66
2021/06/29 13:17:03;;;;;;;4.90;1.90;;;22.50;99.90;;;;;;4978567;28;20435;-65
2021/06/29 13:19:30;;;;;;;5.30;1.70;;;20.70;99.90;;;;;;4978347;28;20454;-65
2021/06/29 13:22:00;;;;;;;3.60;1.63;;;19.30;99.90;;;;;;4977931;28;20890;-64
2021/06/29 13:24:39;;;;;;;3.03;1.90;;;18.50;99.90;;;;;;4978242;28;20517;-64
2021/06/29 13:27:06;;;;;;;5.60;2.80;;;17.90;99.90;;;;;;4978505;28;20446;-64
2021/06/29 13:29:35;;;;;;;4.03;2.00;;;17.70;99.90;;;;;;4978382;28;20465;-64
2021/06/29 13:32:04;;;;;;;7.30;2.77;;;17.60;99.90;;;;;;4977889;28;20988;-65
2021/06/29 13:34:33;;;;;;;4.13;2.33;;;17.50;99.90;;;;;;4978315;28;20458;-64
2021/06/29 13:37:18;;;;;;;8.20;3.07;;;17.40;99.90;;;;;;4978085;28;20462;-64
2021/06/29 13:39:47;;;;;;;3.03;1.80;;;17.30;99.90;;;;;;4977779;28;20442;-63
2021/06/29 13:42:22;;;;;;;4.27;2.10;;;17.20;99.90;;;;;;4977748;28;20477;-64
2021/06/29 13:44:56;;;;;;;3.50;2.03;;;17.20;99.90;;;;;;4977966;28;20457;-63
2021/06/29 13:47:23;;;;;;;2.03;1.50;;;17.20;99.90;;;;;;4976713;28;20439;-63
2021/06/29 13:49:58;;;;;;;1.60;1.50;;;17.20;99.90;;;;;;4977646;28;20443;-63
2021/06/29 13:52:24;;;;;;;2.10;1.57;;;17.10;99.90;;;;;;4977311;28;20486;-64
2021/06/29 13:55:07;;;;;;;1.60;1.50;;;17.10;99.90;;;;;;4977461;28;20454;-64
2021/06/29 13:57:34;;;;;;;1.30;1.30;;;17.20;99.90;;;;;;4977935;28;20443;-64
2021/06/29 14:00:19;;;;;;;1.17;1.07;;;17.10;99.90;;;;;;4977561;28;20470;-64
2021/06/29 14:02:45;;;;;;;1.67;1.30;;;17.20;99.90;;;;;;4977481;28;20439;-65
2021/06/29 14:05:12;;;;;;;1.10;1.00;;;17.20;99.90;;;;;;4977344;28;20450;-66
2021/06/29 14:07:39;;;;;;;2.57;1.33;;;17.20;99.90;;;;;;4977590;28;20458;-66
2021/06/29 14:10:24;;;;;;;3.47;1.20;;;17.20;99.90;;;;;;4977753;28;20466;-65
2021/06/29 14:12:59;;;;;;;2.83;1.37;;;17.20;99.90;;;;;;4977426;28;20814;-65
2021/06/29 14:15:26;;;;;;;1.57;1.47;;;17.20;99.90;;;;;;4977542;28;20477;-65
2021/06/29 14:17:52;;;;;;;2.77;1.47;;;17.20;99.90;;;;;;4977598;28;20509;-65
2021/06/29 14:20:19;;;;;;;4.13;1.40;;;17.20;99.90;;;;;;4977371;28;20462;-64
2021/06/29 14:22:46;;;;;;;2.10;1.53;;;17.30;99.90;;;;;;4977309;28;20530;-64
2021/06/29 14:25:14;;;;;;;2.70;1.80;;;17.30;99.90;;;;;;4976668;28;20938;-65
2021/06/29 14:27:42;;;;;;;2.20;1.47;;;17.30;99.90;;;;;;4977108;28;20459;-64
2021/06/29 14:30:10;;;;;;;1.87;1.30;;;17.40;99.90;;;;;;4977215;28;20554;-64
2021/06/29 14:32:36;;;;;;;1.77;1.37;;;17.40;99.90;;;;;;4976789;28;20494;-64
2021/06/29 14:35:03;;;;;;;4.07;1.30;;;17.40;99.90;;;;;;4976721;28;20455;-64
2021/06/29 14:37:30;;;;;;;3.00;1.80;;;17.40;99.90;;;;;;4977078;28;20451;-63
2021/06/29 14:39:57;;;;;;;4.40;1.40;;;17.50;99.90;;;;;;4977034;28;20463;-64
2021/06/29 14:42:26;;;;;;;2.60;1.50;;;17.50;99.90;;;;;;4976775;28;20479;-64
2021/06/29 14:44:52;;;;;;;1.80;1.70;;;17.40;99.90;;;;;;4976905;28;20501;-64
2021/06/29 14:47:19;;;;;;;1.73;1.50;;;17.40;99.90;;;;;;4976264;28;20957;-65
2021/06/29 14:49:46;;;;;;;2.20;1.47;;;17.30;99.90;;;;;;4976639;28;20466;-65
2021/06/29 14:52:13;;;;;;;1.70;1.60;;;17.30;99.90;;;;;;4977534;28;20486;-64
2021/06/29 14:54:40;;;;;;;3.37;1.60;;;17.30;99.90;;;;;;4976502;28;20455;-64
2021/06/29 14:57:07;;;;;;;1.90;1.80;;;17.30;99.90;;;;;;4976290;28;20465;-64
2021/06/29 14:59:35;;;;;;;2.73;1.40;;;17.40;99.90;;;;;;4976415;28;20454;-65
2021/06/29 15:02:02;;;;;;;2.00;1.90;;;17.40;99.90;;;;;;4977516;28;20893;-67
2021/06/29 15:04:29;;;;;;;4.40;1.80;;;17.50;99.90;;;;;;4977792;28;20517;-63
2021/06/29 15:06:55;;;;;;;3.53;2.00;;;17.50;99.90;;;;;;4976221;28;20455;-64
2021/06/29 15:09:22;;;;;;;4.47;2.40;;;17.20;99.90;;;;;;4976301;28;20838;-64
2021/06/29 15:11:49;;;;;;;3.00;2.07;;;17.30;99.90;;;;;;4975968;28;20491;-64
2021/06/29 15:14:16;;;;;;;3.33;1.80;;;17.40;99.90;;;;;;4975928;28;20941;-64
2021/06/29 15:16:44;;;;;;;2.60;1.90;;;17.40;99.90;;;;;;4976275;28;20461;-64
2021/06/29 15:19:10;;;;;;;2.10;1.80;;;17.30;99.90;;;;;;4976311;28;20941;-64
2021/06/29 15:21:37;;;;;;;2.10;1.90;;;17.30;99.90;;;;;;4976309;28;20463;-66
2021/06/29 15:24:05;;;;;;;1.93;1.70;;;17.30;99.90;;;;;;4976174;28;20458;-65
2021/06/29 15:26:32;;;;;;;1.90;1.80;;;17.10;99.90;;;;;;4976245;28;20457;-64
2021/06/29 15:28:59;;;;;;;1.63;1.53;;;17.20;99.90;;;;;;4975572;28;20934;-65
2021/06/29 15:31:26;;;;;;;1.77;1.67;;;17.20;99.90;;;;;;4975618;28;20476;-64
2021/06/29 15:33:54;;;;;;;1.70;1.60;;;17.20;99.90;;;;;;4975892;28;20517;-64
2021/06/29 15:36:21;;;;;;;1.30;1.30;;;17.40;99.90;;;;;;4976621;28;20926;-65
2021/06/29 15:38:48;;;;;;;1.63;1.60;;;17.50;99.90;;;;;;4975842;28;20450;-65
2021/06/29 15:41:15;;;;;;;1.80;1.70;;;17.70;99.90;;;;;;4975203;28;20977;-65
2021/06/29 15:43:42;;;;;;;1.87;1.77;;;17.70;99.90;;;;;;4975497;28;20956;-64
2021/06/29 15:46:09;;;;;;;2.10;1.77;;;17.90;99.90;;;;;;4975430;28;20439;-64
2021/06/29 15:48:35;;;;;;;3.30;1.70;;;18.10;99.90;;;;;;4976067;28;20455;-64
2021/06/29 15:51:03;;;;;;;1.80;1.70;;;18.30;99.90;;;;;;4975291;28;20478;-64
2021/06/29 15:53:30;;;;;;;1.83;1.67;;;18.40;99.90;;;;;;4975486;28;20490;-64
2021/06/29 15:55:57;;;;;;;1.80;1.70;;;18.50;99.90;;;;;;4975534;28;20450;-64
2021/06/29 15:58:24;;;;;;;2.00;1.60;;;18.60;99.90;;;;;;4975933;28;20454;-66
2021/06/29 16:00:51;;;;;;;1.43;1.20;;;18.80;99.90;;;;;;4975189;28;20493;-65
2021/06/29 16:03:18;;;;;;;2.23;1.67;;;18.90;99.90;;;;;;4975513;28;20462;-65
2021/06/29 16:05:45;;;;;;;4.83;2.20;;;19.00;99.90;;;;;;4975469;28;20480;-65
2021/06/29 16:08:13;;;;;;;2.03;1.30;;;18.90;99.90;;;;;;4975437;28;20458;-65
2021/06/29 16:10:39;;;;;;;1.63;1.53;;;19.00;99.90;;;;;;4974728;28;20475;-65
2021/06/29 16:13:06;;;;;;;3.50;1.37;;;19.00;99.90;;;;;;4974948;28;20849;-65
2021/06/29 16:15:33;;;;;;;1.40;1.30;;;18.90;99.90;;;;;;4975124;28;20459;-65
2021/06/29 16:18:00;;;;;;;1.33;1.33;;;19.10;99.90;;;;;;4975467;28;20927;-64
2021/06/29 16:20:26;;;;;;;2.73;1.40;;;19.30;99.90;;;;;;4975931;28;20454;-64
2021/06/29 16:22:53;;;;;;;1.80;1.40;;;19.50;99.90;;;;;;4975427;28;20946;-64
2021/06/29 16:25:21;;;;;;;1.30;1.27;;;19.60;99.90;;;;;;4976031;28;20454;-66
2021/06/29 16:27:48;;;;;;;1.27;1.27;;;19.70;99.90;;;;;;4975788;28;20459;-65
2021/06/29 16:30:15;;;;;;;2.23;1.30;;;19.50;99.90;;;;;;4975355;28;20462;-65
2021/06/29 16:32:42;;;;;;;3.27;1.73;;;19.40;99.90;;;;;;4975013;28;20533;-65
2021/06/29 16:35:12;;;;;;;2.40;1.10;;;19.50;99.90;;;;;;4974572;28;20942;-65
2021/06/29 16:37:38;;;;;;;1.43;1.33;;;19.30;99.90;;;;;;4975009;28;20459;-65
2021/06/29 16:40:07;;;;;;;1.57;1.33;;;19.20;99.90;;;;;;4975016;28;20465;-65
2021/06/29 16:42:36;;;;;;;1.63;1.40;;;19.10;99.90;;;;;;4975664;28;20471;-65
2021/06/29 16:45:05;;;;;;;1.27;1.20;;;19.10;99.90;;;;;;4975018;28;20459;-66
2021/06/29 16:47:32;;;;;;;1.70;1.40;;;19.10;99.90;;;;;;4975192;28;20454;-65
2021/06/29 16:49:58;;;;;;;1.50;1.50;;;19.10;99.90;;;;;;4974842;28;20458;-65
2021/06/29 16:52:26;;;;;;;2.40;1.50;;;19.00;99.90;;;;;;4974578;28;20994;-65
2021/06/29 16:55:01;;;;;;;1.90;1.57;;;19.10;99.90;;;;;;4975083;28;20474;-65